sensor_id;sensor_type;location;lat;lon;timestamp;P1;durP1;ratioP1;P2;durP2;ratioP2
9330;SDS011;4704;50.470;12.072;2023-02-25T00:02:05;1.13;;;1.00;;
9330;SDS011;4704;50.470;12.072;2023-02-25T00:04:32;0.70;;;0.70;;
9330;SDS011;4704;50.470;12.072;2023-02-25T00:07:00;0.80;;;0.80;;
9330;SDS011;4704;50.470;12.072;2023-02-25T00:09:29;0.77;;;0.77;;
9330;SDS011;4704;50.470;12.072;2023-02-25T00:11:56;0.63;;;0.63;;
9330;SDS011;4704;50.470;12.072;2023-02-25T00:14:23;0.77;;;0.73;;
9330;SDS011;4704;50.470;12.072;2023-02-25T00:16:51;0.93;;;0.80;;
9330;SDS011;4704;50.470;12.072;2023-02-25T00:19:20;0.80;;;0.80;;
9330;SDS011;4704;50.470;12.072;2023-02-25T00:21:47;0.75;;;0.75;;
9330;SDS011;4704;50.470;12.072;2023-02-25T00:24:15;0.82;;;0.82;;
9330;SDS011;4704;50.470;12.072;2023-02-25T00:26:44;0.70;;;0.70;;
9330;SDS011;4704;50.470;12.072;2023-02-25T00:29:12;0.80;;;0.80;;
9330;SDS011;4704;50.470;12.072;2023-02-25T00:31:39;0.80;;;0.80;;
9330;SDS011;4704;50.470;12.072;2023-02-25T00:34:06;1.45;;;0.90;;
9330;SDS011;4704;50.470;12.072;2023-02-25T00:36:34;0.70;;;0.70;;
9330;SDS011;4704;50.470;12.072;2023-02-25T00:39:02;0.80;;;0.70;;
9330;SDS011;4704;50.470;12.072;2023-02-25T00:41:29;0.75;;;0.75;;
9330;SDS011;4704;50.470;12.072;2023-02-25T00:43:58;0.98;;;0.80;;
9330;SDS011;4704;50.470;12.072;2023-02-25T00:46:27;0.70;;;0.70;;
9330;SDS011;4704;50.470;12.072;2023-02-25T00:48:55;1.10;;;0.60;;
9330;SDS011;4704;50.470;12.072;2023-02-25T00:51:24;0.80;;;0.80;;
9330;SDS011;4704;50.470;12.072;2023-02-25T00:53:52;0.60;;;0.60;;
9330;SDS011;4704;50.470;12.072;2023-02-25T00:56:21;0.73;;;0.73;;
9330;SDS011;4704;50.470;12.072;2023-02-25T00:58:49;0.82;;;0.82;;
9330;SDS011;4704;50.470;12.072;2023-02-25T01:01:20;0.70;;;0.57;;
9330;SDS011;4704;50.470;12.072;2023-02-25T01:03:49;0.70;;;0.70;;
9330;SDS011;4704;50.470;12.072;2023-02-25T01:06:17;0.90;;;0.70;;
9330;SDS011;4704;50.470;12.072;2023-02-25T01:08:45;0.70;;;0.70;;
9330;SDS011;4704;50.470;12.072;2023-02-25T01:11:12;0.85;;;0.85;;
9330;SDS011;4704;50.470;12.072;2023-02-25T01:13:41;0.60;;;0.60;;
9330;SDS011;4704;50.470;12.072;2023-02-25T01:16:10;1.02;;;0.70;;
9330;SDS011;4704;50.470;12.072;2023-02-25T01:18:39;0.50;;;0.50;;
9330;SDS011;4704;50.470;12.072;2023-02-25T01:21:06;0.80;;;0.80;;
9330;SDS011;4704;50.470;12.072;2023-02-25T01:23:34;0.60;;;0.60;;
9330;SDS011;4704;50.470;12.072;2023-02-25T01:26:02;0.90;;;0.77;;
9330;SDS011;4704;50.470;12.072;2023-02-25T01:28:30;0.60;;;0.60;;
9330;SDS011;4704;50.470;12.072;2023-02-25T01:30:58;0.60;;;0.60;;
9330;SDS011;4704;50.470;12.072;2023-02-25T01:33:25;0.73;;;0.70;;
9330;SDS011;4704;50.470;12.072;2023-02-25T01:35:54;0.90;;;0.60;;
9330;SDS011;4704;50.470;12.072;2023-02-25T01:38:22;0.70;;;0.55;;
9330;SDS011;4704;50.470;12.072;2023-02-25T01:40:55;1.15;;;0.65;;
9330;SDS011;4704;50.470;12.072;2023-02-25T01:43:23;0.60;;;0.60;;
9330;SDS011;4704;50.470;12.072;2023-02-25T01:45:50;0.63;;;0.63;;
9330;SDS011;4704;50.470;12.072;2023-02-25T01:48:19;0.65;;;0.50;;
9330;SDS011;4704;50.470;12.072;2023-02-25T01:50:49;0.70;;;0.70;;
9330;SDS011;4704;50.470;12.072;2023-02-25T01:53:18;0.60;;;0.60;;
9330;SDS011;4704;50.470;12.072;2023-02-25T01:55:47;0.60;;;0.60;;
9330;SDS011;4704;50.470;12.072;2023-02-25T01:58:15;0.70;;;0.70;;
9330;SDS011;4704;50.470;12.072;2023-02-25T02:00:43;0.93;;;0.57;;
9330;SDS011;4704;50.470;12.072;2023-02-25T02:03:11;0.70;;;0.70;;
9330;SDS011;4704;50.470;12.072;2023-02-25T02:05:55;0.85;;;0.52;;
9330;SDS011;4704;50.470;12.072;2023-02-25T02:08:27;0.65;;;0.60;;
9330;SDS011;4704;50.470;12.072;2023-02-25T02:10:55;0.70;;;0.60;;
9330;SDS011;4704;50.470;12.072;2023-02-25T02:13:22;0.77;;;0.70;;
9330;SDS011;4704;50.470;12.072;2023-02-25T02:15:53;0.77;;;0.63;;
9330;SDS011;4704;50.470;12.072;2023-02-25T02:18:25;0.70;;;0.55;;
9330;SDS011;4704;50.470;12.072;2023-02-25T02:20:57;0.75;;;0.75;;
9330;SDS011;4704;50.470;12.072;2023-02-25T02:23:36;0.50;;;0.50;;
9330;SDS011;4704;50.470;12.072;2023-02-25T02:26:18;0.63;;;0.60;;
9330;SDS011;4704;50.470;12.072;2023-02-25T02:31:41;0.93;;;0.60;;
9330;SDS011;4704;50.470;12.072;2023-02-25T02:34:14;0.80;;;0.60;;
9330;SDS011;4704;50.470;12.072;2023-02-25T02:36:47;1.17;;;0.68;;
9330;SDS011;4704;50.470;12.072;2023-02-25T02:39:18;0.45;;;0.43;;
9330;SDS011;4704;50.470;12.072;2023-02-25T02:41:51;0.65;;;0.55;;
9330;SDS011;4704;50.470;12.072;2023-02-25T02:44:23;0.60;;;0.50;;
9330;SDS011;4704;50.470;12.072;2023-02-25T02:46:55;0.75;;;0.43;;
9330;SDS011;4704;50.470;12.072;2023-02-25T02:49:27;0.70;;;0.57;;
9330;SDS011;4704;50.470;12.072;2023-02-25T02:51:58;1.20;;;0.60;;
9330;SDS011;4704;50.470;12.072;2023-02-25T02:54:26;1.00;;;0.50;;
9330;SDS011;4704;50.470;12.072;2023-02-25T02:56:56;0.65;;;0.50;;
9330;SDS011;4704;50.470;12.072;2023-02-25T02:59:26;1.02;;;0.60;;
9330;SDS011;4704;50.470;12.072;2023-02-25T03:01:56;0.70;;;0.60;;
9330;SDS011;4704;50.470;12.072;2023-02-25T03:04:24;1.33;;;0.60;;
9330;SDS011;4704;50.470;12.072;2023-02-25T03:06:54;0.65;;;0.50;;
9330;SDS011;4704;50.470;12.072;2023-02-25T03:09:24;0.60;;;0.60;;
9330;SDS011;4704;50.470;12.072;2023-02-25T03:11:54;0.80;;;0.50;;
9330;SDS011;4704;50.470;12.072;2023-02-25T03:14:22;0.75;;;0.60;;
9330;SDS011;4704;50.470;12.072;2023-02-25T03:16:51;0.60;;;0.60;;
9330;SDS011;4704;50.470;12.072;2023-02-25T03:19:23;0.60;;;0.50;;
9330;SDS011;4704;50.470;12.072;2023-02-25T03:21:53;0.80;;;0.50;;
9330;SDS011;4704;50.470;12.072;2023-02-25T03:24:22;0.60;;;0.40;;
9330;SDS011;4704;50.470;12.072;2023-02-25T03:26:53;0.38;;;0.38;;
9330;SDS011;4704;50.470;12.072;2023-02-25T03:29:21;0.73;;;0.60;;
9330;SDS011;4704;50.470;12.072;2023-02-25T03:31:52;0.65;;;0.40;;
9330;SDS011;4704;50.470;12.072;2023-02-25T03:34:23;0.60;;;0.50;;
9330;SDS011;4704;50.470;12.072;2023-02-25T03:36:54;0.82;;;0.50;;
9330;SDS011;4704;50.470;12.072;2023-02-25T03:39:23;0.80;;;0.60;;
9330;SDS011;4704;50.470;12.072;2023-02-25T03:41:53;0.50;;;0.50;;
9330;SDS011;4704;50.470;12.072;2023-02-25T03:44:22;0.82;;;0.50;;
9330;SDS011;4704;50.470;12.072;2023-02-25T03:46:51;0.80;;;0.50;;
9330;SDS011;4704;50.470;12.072;2023-02-25T03:49:20;0.95;;;0.60;;
9330;SDS011;4704;50.470;12.072;2023-02-25T03:51:50;0.90;;;0.40;;
9330;SDS011;4704;50.470;12.072;2023-02-25T03:54:19;0.68;;;0.55;;
9330;SDS011;4704;50.470;12.072;2023-02-25T03:56:48;0.68;;;0.57;;
9330;SDS011;4704;50.470;12.072;2023-02-25T03:59:16;0.70;;;0.50;;
9330;SDS011;4704;50.470;12.072;2023-02-25T04:01:43;0.70;;;0.60;;
9330;SDS011;4704;50.470;12.072;2023-02-25T04:04:12;0.82;;;0.40;;
9330;SDS011;4704;50.470;12.072;2023-02-25T04:06:40;1.35;;;0.55;;
9330;SDS011;4704;50.470;12.072;2023-02-25T04:09:09;0.50;;;0.50;;
9330;SDS011;4704;50.470;12.072;2023-02-25T04:11:37;0.45;;;0.40;;
9330;SDS011;4704;50.470;12.072;2023-02-25T04:14:04;0.75;;;0.45;;
9330;SDS011;4704;50.470;12.072;2023-02-25T04:16:32;0.70;;;0.60;;
9330;SDS011;4704;50.470;12.072;2023-02-25T04:18:59;1.08;;;0.60;;
9330;SDS011;4704;50.470;12.072;2023-02-25T04:21:28;0.52;;;0.52;;
9330;SDS011;4704;50.470;12.072;2023-02-25T04:23:56;0.85;;;0.50;;
9330;SDS011;4704;50.470;12.072;2023-02-25T04:26:25;0.40;;;0.40;;
9330;SDS011;4704;50.470;12.072;2023-02-25T04:28:52;0.50;;;0.30;;
9330;SDS011;4704;50.470;12.072;2023-02-25T04:31:20;0.60;;;0.60;;
9330;SDS011;4704;50.470;12.072;2023-02-25T04:33:47;0.70;;;0.50;;
9330;SDS011;4704;50.470;12.072;2023-02-25T04:36:22;0.75;;;0.65;;
9330;SDS011;4704;50.470;12.072;2023-02-25T04:38:50;1.45;;;0.60;;
9330;SDS011;4704;50.470;12.072;2023-02-25T04:41:17;0.63;;;0.50;;
9330;SDS011;4704;50.470;12.072;2023-02-25T04:43:46;0.50;;;0.50;;
9330;SDS011;4704;50.470;12.072;2023-02-25T04:46:14;0.63;;;0.40;;
9330;SDS011;4704;50.470;12.072;2023-02-25T04:48:41;0.75;;;0.60;;
9330;SDS011;4704;50.470;12.072;2023-02-25T04:51:09;0.60;;;0.30;;
9330;SDS011;4704;50.470;12.072;2023-02-25T04:53:36;1.20;;;0.43;;
9330;SDS011;4704;50.470;12.072;2023-02-25T04:56:04;1.05;;;0.57;;
9330;SDS011;4704;50.470;12.072;2023-02-25T04:58:32;0.65;;;0.40;;
9330;SDS011;4704;50.470;12.072;2023-02-25T05:01:01;0.73;;;0.57;;
9330;SDS011;4704;50.470;12.072;2023-02-25T05:03:29;1.00;;;0.68;;
9330;SDS011;4704;50.470;12.072;2023-02-25T05:05:57;0.60;;;0.60;;
9330;SDS011;4704;50.470;12.072;2023-02-25T05:08:25;1.10;;;0.60;;
9330;SDS011;4704;50.470;12.072;2023-02-25T05:10:52;0.60;;;0.40;;
9330;SDS011;4704;50.470;12.072;2023-02-25T05:13:20;0.55;;;0.38;;
9330;SDS011;4704;50.470;12.072;2023-02-25T05:15:48;1.08;;;0.50;;
9330;SDS011;4704;50.470;12.072;2023-02-25T05:18:17;0.63;;;0.50;;
9330;SDS011;4704;50.470;12.072;2023-02-25T05:20:45;0.68;;;0.60;;
9330;SDS011;4704;50.470;12.072;2023-02-25T05:23:13;0.90;;;0.50;;
9330;SDS011;4704;50.470;12.072;2023-02-25T05:25:40;0.50;;;0.50;;
9330;SDS011;4704;50.470;12.072;2023-02-25T05:28:08;0.75;;;0.60;;
9330;SDS011;4704;50.470;12.072;2023-02-25T05:30:37;0.57;;;0.50;;
9330;SDS011;4704;50.470;12.072;2023-02-25T05:33:05;0.93;;;0.50;;
9330;SDS011;4704;50.470;12.072;2023-02-25T05:35:37;0.68;;;0.60;;
9330;SDS011;4704;50.470;12.072;2023-02-25T05:38:05;1.15;;;0.30;;
9330;SDS011;4704;50.470;12.072;2023-02-25T05:40:32;0.77;;;0.50;;
9330;SDS011;4704;50.470;12.072;2023-02-25T05:43:00;0.80;;;0.60;;
9330;SDS011;4704;50.470;12.072;2023-02-25T05:45:28;0.88;;;0.50;;
9330;SDS011;4704;50.470;12.072;2023-02-25T05:47:55;1.40;;;0.40;;
9330;SDS011;4704;50.470;12.072;2023-02-25T05:50:23;0.57;;;0.28;;
9330;SDS011;4704;50.470;12.072;2023-02-25T05:52:51;0.80;;;0.50;;
9330;SDS011;4704;50.470;12.072;2023-02-25T05:55:19;0.68;;;0.43;;
9330;SDS011;4704;50.470;12.072;2023-02-25T05:57:46;0.75;;;0.70;;
9330;SDS011;4704;50.470;12.072;2023-02-25T06:00:14;0.57;;;0.40;;
9330;SDS011;4704;50.470;12.072;2023-02-25T06:02:45;0.68;;;0.40;;
9330;SDS011;4704;50.470;12.072;2023-02-25T06:05:12;1.23;;;0.52;;
9330;SDS011;4704;50.470;12.072;2023-02-25T06:07:40;0.70;;;0.50;;
9330;SDS011;4704;50.470;12.072;2023-02-25T06:10:10;0.50;;;0.32;;
9330;SDS011;4704;50.470;12.072;2023-02-25T06:12:37;0.40;;;0.30;;
9330;SDS011;4704;50.470;12.072;2023-02-25T06:15:05;0.80;;;0.50;;
9330;SDS011;4704;50.470;12.072;2023-02-25T06:17:33;0.60;;;0.30;;
9330;SDS011;4704;50.470;12.072;2023-02-25T06:20:00;0.65;;;0.55;;
9330;SDS011;4704;50.470;12.072;2023-02-25T06:22:29;0.63;;;0.40;;
9330;SDS011;4704;50.470;12.072;2023-02-25T06:24:57;0.30;;;0.30;;
9330;SDS011;4704;50.470;12.072;2023-02-25T06:27:25;1.00;;;0.60;;
9330;SDS011;4704;50.470;12.072;2023-02-25T06:29:54;0.90;;;0.50;;
9330;SDS011;4704;50.470;12.072;2023-02-25T06:32:21;0.35;;;0.30;;
9330;SDS011;4704;50.470;12.072;2023-02-25T06:34:48;0.50;;;0.40;;
9330;SDS011;4704;50.470;12.072;2023-02-25T06:37:17;0.93;;;0.40;;
9330;SDS011;4704;50.470;12.072;2023-02-25T06:39:44;1.00;;;0.30;;
9330;SDS011;4704;50.470;12.072;2023-02-25T06:42:11;0.85;;;0.50;;
9330;SDS011;4704;50.470;12.072;2023-02-25T06:44:40;0.60;;;0.50;;
9330;SDS011;4704;50.470;12.072;2023-02-25T06:47:08;0.43;;;0.43;;
9330;SDS011;4704;50.470;12.072;2023-02-25T06:49:35;0.63;;;0.45;;
9330;SDS011;4704;50.470;12.072;2023-02-25T06:52:02;0.90;;;0.50;;
9330;SDS011;4704;50.470;12.072;2023-02-25T06:54:30;0.45;;;0.40;;
9330;SDS011;4704;50.470;12.072;2023-02-25T06:56:57;0.50;;;0.43;;
9330;SDS011;4704;50.470;12.072;2023-02-25T06:59:25;0.60;;;0.40;;
9330;SDS011;4704;50.470;12.072;2023-02-25T07:01:54;0.43;;;0.43;;
9330;SDS011;4704;50.470;12.072;2023-02-25T07:04:22;0.93;;;0.50;;
9330;SDS011;4704;50.470;12.072;2023-02-25T07:06:49;1.02;;;0.50;;
9330;SDS011;4704;50.470;12.072;2023-02-25T07:09:17;0.88;;;0.50;;
9330;SDS011;4704;50.470;12.072;2023-02-25T07:11:44;1.15;;;0.40;;
9330;SDS011;4704;50.470;12.072;2023-02-25T07:14:12;0.40;;;0.40;;
9330;SDS011;4704;50.470;12.072;2023-02-25T07:16:40;0.75;;;0.45;;
9330;SDS011;4704;50.470;12.072;2023-02-25T07:19:09;0.82;;;0.32;;
9330;SDS011;4704;50.470;12.072;2023-02-25T07:21:39;1.15;;;0.50;;
9330;SDS011;4704;50.470;12.072;2023-02-25T07:24:06;0.45;;;0.30;;
9330;SDS011;4704;50.470;12.072;2023-02-25T07:26:34;0.57;;;0.50;;
9330;SDS011;4704;50.470;12.072;2023-02-25T07:29:02;0.70;;;0.40;;
9330;SDS011;4704;50.470;12.072;2023-02-25T07:31:30;0.45;;;0.40;;
9330;SDS011;4704;50.470;12.072;2023-02-25T07:33:58;0.40;;;0.30;;
9330;SDS011;4704;50.470;12.072;2023-02-25T07:36:29;0.40;;;0.40;;
9330;SDS011;4704;50.470;12.072;2023-02-25T07:38:57;0.45;;;0.40;;
9330;SDS011;4704;50.470;12.072;2023-02-25T07:41:26;0.60;;;0.30;;
9330;SDS011;4704;50.470;12.072;2023-02-25T07:43:54;0.40;;;0.40;;
9330;SDS011;4704;50.470;12.072;2023-02-25T07:46:21;0.38;;;0.35;;
9330;SDS011;4704;50.470;12.072;2023-02-25T07:48:50;0.52;;;0.40;;
9330;SDS011;4704;50.470;12.072;2023-02-25T07:51:18;0.70;;;0.50;;
9330;SDS011;4704;50.470;12.072;2023-02-25T07:53:48;0.43;;;0.40;;
9330;SDS011;4704;50.470;12.072;2023-02-25T07:56:16;0.63;;;0.45;;
9330;SDS011;4704;50.470;12.072;2023-02-25T07:58:44;1.45;;;0.50;;
9330;SDS011;4704;50.470;12.072;2023-02-25T08:01:18;0.50;;;0.50;;
9330;SDS011;4704;50.470;12.072;2023-02-25T08:03:47;1.58;;;0.43;;
9330;SDS011;4704;50.470;12.072;2023-02-25T08:06:15;0.60;;;0.40;;
9330;SDS011;4704;50.470;12.072;2023-02-25T08:08:43;0.32;;;0.30;;
9330;SDS011;4704;50.470;12.072;2023-02-25T08:11:12;0.30;;;0.30;;
9330;SDS011;4704;50.470;12.072;2023-02-25T08:13:40;0.40;;;0.32;;
9330;SDS011;4704;50.470;12.072;2023-02-25T08:16:08;1.65;;;0.40;;
9330;SDS011;4704;50.470;12.072;2023-02-25T08:18:36;0.93;;;0.40;;
9330;SDS011;4704;50.470;12.072;2023-02-25T08:21:06;0.57;;;0.50;;
9330;SDS011;4704;50.470;12.072;2023-02-25T08:23:34;0.40;;;0.30;;
9330;SDS011;4704;50.470;12.072;2023-02-25T08:26:01;0.80;;;0.40;;
9330;SDS011;4704;50.470;12.072;2023-02-25T08:28:30;0.60;;;0.40;;
9330;SDS011;4704;50.470;12.072;2023-02-25T08:30:58;0.40;;;0.35;;
9330;SDS011;4704;50.470;12.072;2023-02-25T08:33:26;1.25;;;0.50;;
9330;SDS011;4704;50.470;12.072;2023-02-25T08:35:54;0.70;;;0.40;;
9330;SDS011;4704;50.470;12.072;2023-02-25T08:38:21;1.80;;;0.40;;
9330;SDS011;4704;50.470;12.072;2023-02-25T08:40:49;0.50;;;0.50;;
9330;SDS011;4704;50.470;12.072;2023-02-25T08:43:16;0.60;;;0.40;;
9330;SDS011;4704;50.470;12.072;2023-02-25T08:45:45;1.17;;;0.45;;
9330;SDS011;4704;50.470;12.072;2023-02-25T08:48:13;0.68;;;0.50;;
9330;SDS011;4704;50.470;12.072;2023-02-25T08:50:41;0.57;;;0.40;;
9330;SDS011;4704;50.470;12.072;2023-02-25T08:53:08;0.50;;;0.47;;
9330;SDS011;4704;50.470;12.072;2023-02-25T08:55:36;0.52;;;0.40;;
9330;SDS011;4704;50.470;12.072;2023-02-25T08:58:05;0.47;;;0.40;;
9330;SDS011;4704;50.470;12.072;2023-02-25T09:00:32;0.40;;;0.35;;
9330;SDS011;4704;50.470;12.072;2023-02-25T09:03:01;0.85;;;0.50;;
9330;SDS011;4704;50.470;12.072;2023-02-25T09:05:29;0.75;;;0.57;;
9330;SDS011;4704;50.470;12.072;2023-02-25T09:07:57;1.40;;;1.30;;
9330;SDS011;4704;50.470;12.072;2023-02-25T09:10:24;1.63;;;1.52;;
9330;SDS011;4704;50.470;12.072;2023-02-25T09:12:51;15.45;;;14.05;;
9330;SDS011;4704;50.470;12.072;2023-02-25T09:15:19;14.35;;;13.02;;
9330;SDS011;4704;50.470;12.072;2023-02-25T09:17:47;11.80;;;10.60;;
9330;SDS011;4704;50.470;12.072;2023-02-25T09:20:17;11.18;;;10.00;;
9330;SDS011;4704;50.470;12.072;2023-02-25T09:22:44;11.50;;;10.30;;
9330;SDS011;4704;50.470;12.072;2023-02-25T09:25:12;11.32;;;10.23;;
9330;SDS011;4704;50.470;12.072;2023-02-25T09:27:39;11.52;;;10.43;;
9330;SDS011;4704;50.470;12.072;2023-02-25T09:30:07;11.38;;;10.15;;
9330;SDS011;4704;50.470;12.072;2023-02-25T09:32:35;10.73;;;9.70;;
9330;SDS011;4704;50.470;12.072;2023-02-25T09:35:02;11.55;;;10.45;;
9330;SDS011;4704;50.470;12.072;2023-02-25T09:37:33;15.18;;;13.65;;
9330;SDS011;4704;50.470;12.072;2023-02-25T09:40:00;14.55;;;13.20;;
9330;SDS011;4704;50.470;12.072;2023-02-25T09:42:32;14.43;;;12.20;;
9330;SDS011;4704;50.470;12.072;2023-02-25T09:45:08;14.18;;;12.77;;
9330;SDS011;4704;50.470;12.072;2023-02-25T09:47:41;13.77;;;12.35;;
9330;SDS011;4704;50.470;12.072;2023-02-25T09:50:11;15.05;;;12.07;;
9330;SDS011;4704;50.470;12.072;2023-02-25T09:52:45;13.68;;;12.18;;
9330;SDS011;4704;50.470;12.072;2023-02-25T09:55:15;13.57;;;12.45;;
9330;SDS011;4704;50.470;12.072;2023-02-25T09:57:44;12.85;;;11.70;;
9330;SDS011;4704;50.470;12.072;2023-02-25T10:00:16;12.23;;;11.15;;
9330;SDS011;4704;50.470;12.072;2023-02-25T10:02:46;12.65;;;11.18;;
9330;SDS011;4704;50.470;12.072;2023-02-25T10:05:17;12.70;;;11.50;;
9330;SDS011;4704;50.470;12.072;2023-02-25T10:07:52;12.15;;;11.13;;
9330;SDS011;4704;50.470;12.072;2023-02-25T10:10:22;12.10;;;10.90;;
9330;SDS011;4704;50.470;12.072;2023-02-25T10:12:52;13.07;;;12.00;;
9330;SDS011;4704;50.470;12.072;2023-02-25T10:15:26;14.32;;;13.02;;
9330;SDS011;4704;50.470;12.072;2023-02-25T10:18:02;14.30;;;13.07;;
9330;SDS011;4704;50.470;12.072;2023-02-25T10:20:40;15.43;;;14.20;;
9330;SDS011;4704;50.470;12.072;2023-02-25T10:23:13;16.92;;;15.45;;
9330;SDS011;4704;50.470;12.072;2023-02-25T10:25:44;18.25;;;16.73;;
9330;SDS011;4704;50.470;12.072;2023-02-25T10:28:16;19.00;;;17.50;;
9330;SDS011;4704;50.470;12.072;2023-02-25T10:30:45;21.08;;;19.48;;
9330;SDS011;4704;50.470;12.072;2023-02-25T10:33:15;25.05;;;23.25;;
9330;SDS011;4704;50.470;12.072;2023-02-25T10:35:45;27.58;;;25.58;;
9330;SDS011;4704;50.470;12.072;2023-02-25T10:38:18;31.30;;;29.10;;
9330;SDS011;4704;50.470;12.072;2023-02-25T10:40:45;37.50;;;35.00;;
9330;SDS011;4704;50.470;12.072;2023-02-25T10:43:18;44.92;;;41.92;;
9330;SDS011;4704;50.470;12.072;2023-02-25T10:45:46;55.33;;;51.63;;
9330;SDS011;4704;50.470;12.072;2023-02-25T10:48:16;64.25;;;59.85;;
9330;SDS011;4704;50.470;12.072;2023-02-25T10:50:47;75.30;;;70.35;;
9330;SDS011;4704;50.470;12.072;2023-02-25T10:53:28;88.47;;;82.57;;
9330;SDS011;4704;50.470;12.072;2023-02-25T10:55:56;106.43;;;99.38;;
9330;SDS011;4704;50.470;12.072;2023-02-25T10:58:30;117.13;;;109.38;;
9330;SDS011;4704;50.470;12.072;2023-02-25T11:01:00;128.18;;;119.78;;
9330;SDS011;4704;50.470;12.072;2023-02-25T11:03:30;134.75;;;125.80;;
9330;SDS011;4704;50.470;12.072;2023-02-25T11:06:11;135.18;;;126.35;;
9330;SDS011;4704;50.470;12.072;2023-02-25T11:08:40;142.43;;;132.93;;
9330;SDS011;4704;50.470;12.072;2023-02-25T11:11:13;136.23;;;127.35;;
9330;SDS011;4704;50.470;12.072;2023-02-25T11:13:41;134.77;;;125.97;;
9330;SDS011;4704;50.470;12.072;2023-02-25T11:16:09;127.38;;;118.97;;
9330;SDS011;4704;50.470;12.072;2023-02-25T11:18:37;120.30;;;112.30;;
9330;SDS011;4704;50.470;12.072;2023-02-25T11:21:06;120.55;;;112.65;;
9330;SDS011;4704;50.470;12.072;2023-02-25T11:23:34;115.82;;;108.38;;
9330;SDS011;4704;50.470;12.072;2023-02-25T11:26:04;111.10;;;104.00;;
9330;SDS011;4704;50.470;12.072;2023-02-25T11:28:33;102.90;;;96.10;;
9330;SDS011;4704;50.470;12.072;2023-02-25T11:31:04;102.32;;;95.65;;
9330;SDS011;4704;50.470;12.072;2023-02-25T11:33:34;94.22;;;87.93;;
9330;SDS011;4704;50.470;12.072;2023-02-25T11:36:03;84.78;;;78.93;;
9330;SDS011;4704;50.470;12.072;2023-02-25T11:38:33;80.03;;;74.55;;
9330;SDS011;4704;50.470;12.072;2023-02-25T11:41:01;74.30;;;69.28;;
9330;SDS011;4704;50.470;12.072;2023-02-25T11:43:35;69.78;;;65.00;;
9330;SDS011;4704;50.470;12.072;2023-02-25T11:46:05;66.30;;;61.78;;
9330;SDS011;4704;50.470;12.072;2023-02-25T11:48:38;65.90;;;61.33;;
9330;SDS011;4704;50.470;12.072;2023-02-25T11:51:08;60.75;;;56.58;;
9330;SDS011;4704;50.470;12.072;2023-02-25T11:56:25;53.67;;;50.10;;
9330;SDS011;4704;50.470;12.072;2023-02-25T11:59:00;54.33;;;50.63;;
9330;SDS011;4704;50.470;12.072;2023-02-25T12:01:40;50.47;;;47.08;;
9330;SDS011;4704;50.470;12.072;2023-02-25T12:04:17;46.75;;;43.67;;
9330;SDS011;4704;50.470;12.072;2023-02-25T12:09:44;43.30;;;40.42;;
9330;SDS011;4704;50.470;12.072;2023-02-25T12:12:25;42.17;;;39.38;;
9330;SDS011;4704;50.470;12.072;2023-02-25T12:15:06;39.30;;;36.70;;
9330;SDS011;4704;50.470;12.072;2023-02-25T12:26:05;33.22;;;30.98;;
9330;SDS011;4704;50.470;12.072;2023-02-25T12:28:39;31.52;;;29.52;;
9330;SDS011;4704;50.470;12.072;2023-02-25T12:31:37;28.88;;;26.98;;
9330;SDS011;4704;50.470;12.072;2023-02-25T12:34:09;28.48;;;26.58;;
9330;SDS011;4704;50.470;12.072;2023-02-25T12:36:46;26.80;;;25.00;;
9330;SDS011;4704;50.470;12.072;2023-02-25T12:39:18;24.08;;;22.52;;
9330;SDS011;4704;50.470;12.072;2023-02-25T12:41:50;23.98;;;22.45;;
9330;SDS011;4704;50.470;12.072;2023-02-25T12:47:08;20.33;;;19.02;;
9330;SDS011;4704;50.470;12.072;2023-02-25T12:49:55;20.55;;;19.15;;
9330;SDS011;4704;50.470;12.072;2023-02-25T12:52:33;17.60;;;16.40;;
9330;SDS011;4704;50.470;12.072;2023-02-25T12:55:14;18.40;;;17.20;;
9330;SDS011;4704;50.470;12.072;2023-02-25T12:57:49;16.15;;;15.02;;
9330;SDS011;4704;50.470;12.072;2023-02-25T13:00:27;16.23;;;15.15;;
9330;SDS011;4704;50.470;12.072;2023-02-25T13:03:11;14.60;;;13.70;;
9330;SDS011;4704;50.470;12.072;2023-02-25T13:05:59;14.23;;;13.32;;
9330;SDS011;4704;50.470;12.072;2023-02-25T13:08:38;13.02;;;12.13;;
9330;SDS011;4704;50.470;12.072;2023-02-25T13:11:11;13.00;;;12.20;;
9330;SDS011;4704;50.470;12.072;2023-02-25T13:13:50;12.35;;;11.55;;
9330;SDS011;4704;50.470;12.072;2023-02-25T13:16:30;11.63;;;10.88;;
9330;SDS011;4704;50.470;12.072;2023-02-25T13:19:08;11.70;;;10.98;;
9330;SDS011;4704;50.470;12.072;2023-02-25T13:21:42;10.68;;;9.98;;
9330;SDS011;4704;50.470;12.072;2023-02-25T13:24:16;10.18;;;9.57;;
9330;SDS011;4704;50.470;12.072;2023-02-25T13:29:34;9.45;;;8.85;;
9330;SDS011;4704;50.470;12.072;2023-02-25T13:32:11;9.18;;;8.57;;
9330;SDS011;4704;50.470;12.072;2023-02-25T13:34:43;8.98;;;8.38;;
9330;SDS011;4704;50.470;12.072;2023-02-25T13:37:16;8.70;;;8.00;;
9330;SDS011;4704;50.470;12.072;2023-02-25T13:42:39;8.13;;;7.63;;
9330;SDS011;4704;50.470;12.072;2023-02-25T13:45:24;7.38;;;6.88;;
9330;SDS011;4704;50.470;12.072;2023-02-25T13:47:57;7.90;;;7.30;;
9330;SDS011;4704;50.470;12.072;2023-02-25T13:50:31;7.32;;;6.93;;
9330;SDS011;4704;50.470;12.072;2023-02-25T13:53:04;6.70;;;6.30;;
9330;SDS011;4704;50.470;12.072;2023-02-25T13:55:45;7.18;;;6.55;;
9330;SDS011;4704;50.470;12.072;2023-02-25T14:01:18;6.55;;;6.05;;
9330;SDS011;4704;50.470;12.072;2023-02-25T14:06:42;5.68;;;5.25;;
9330;SDS011;4704;50.470;12.072;2023-02-25T14:09:16;5.50;;;5.10;;
9330;SDS011;4704;50.470;12.072;2023-02-25T14:11:48;5.25;;;4.95;;
9330;SDS011;4704;50.470;12.072;2023-02-25T14:19:59;5.80;;;4.90;;
9330;SDS011;4704;50.470;12.072;2023-02-25T14:22:36;4.95;;;4.55;;
9330;SDS011;4704;50.470;12.072;2023-02-25T14:25:13;5.07;;;4.65;;
9330;SDS011;4704;50.470;12.072;2023-02-25T14:27:45;6.88;;;4.63;;
9330;SDS011;4704;50.470;12.072;2023-02-25T14:30:17;6.53;;;4.38;;
9330;SDS011;4704;50.470;12.072;2023-02-25T14:32:52;6.18;;;4.30;;
9330;SDS011;4704;50.470;12.072;2023-02-25T14:35:28;4.50;;;4.10;;
9330;SDS011;4704;50.470;12.072;2023-02-25T14:38:04;10.10;;;4.50;;
9330;SDS011;4704;50.470;12.072;2023-02-25T14:40:36;4.82;;;3.70;;
9330;SDS011;4704;50.470;12.072;2023-02-25T14:43:19;4.10;;;3.40;;
9330;SDS011;4704;50.470;12.072;2023-02-25T14:45:53;6.28;;;3.92;;
9330;SDS011;4704;50.470;12.072;2023-02-25T14:48:24;5.88;;;3.60;;
9330;SDS011;4704;50.470;12.072;2023-02-25T14:50:55;4.43;;;3.60;;
9330;SDS011;4704;50.470;12.072;2023-02-25T14:53:34;5.13;;;3.70;;
9330;SDS011;4704;50.470;12.072;2023-02-25T14:58:51;5.38;;;3.58;;
9330;SDS011;4704;50.470;12.072;2023-02-25T15:01:35;8.15;;;3.60;;
9330;SDS011;4704;50.470;12.072;2023-02-25T15:04:17;7.40;;;3.45;;
9330;SDS011;4704;50.470;12.072;2023-02-25T15:06:59;4.70;;;3.67;;
9330;SDS011;4704;50.470;12.072;2023-02-25T15:12:22;7.53;;;3.00;;
9330;SDS011;4704;50.470;12.072;2023-02-25T15:14:57;7.13;;;3.05;;
9330;SDS011;4704;50.470;12.072;2023-02-25T15:17:42;7.55;;;3.15;;
9330;SDS011;4704;50.470;12.072;2023-02-25T15:23:02;5.40;;;2.63;;
9330;SDS011;4704;50.470;12.072;2023-02-25T15:25:38;3.97;;;2.80;;
9330;SDS011;4704;50.470;12.072;2023-02-25T15:31:09;3.15;;;2.47;;
9330;SDS011;4704;50.470;12.072;2023-02-25T15:33:52;3.25;;;2.67;;
9330;SDS011;4704;50.470;12.072;2023-02-25T15:36:25;4.40;;;2.63;;
9330;SDS011;4704;50.470;12.072;2023-02-25T15:38:53;4.63;;;2.38;;
9330;SDS011;4704;50.470;12.072;2023-02-25T15:41:40;3.35;;;2.45;;
9330;SDS011;4704;50.470;12.072;2023-02-25T15:47:10;5.13;;;2.40;;
9330;SDS011;4704;50.470;12.072;2023-02-25T15:49:43;3.95;;;2.20;;
9330;SDS011;4704;50.470;12.072;2023-02-25T15:52:12;2.70;;;2.42;;
9330;SDS011;4704;50.470;12.072;2023-02-25T15:54:46;3.60;;;2.10;;
9330;SDS011;4704;50.470;12.072;2023-02-25T15:59:56;6.53;;;2.00;;
9330;SDS011;4704;50.470;12.072;2023-02-25T16:05:15;2.47;;;1.90;;
9330;SDS011;4704;50.470;12.072;2023-02-25T16:07:45;6.10;;;2.05;;
9330;SDS011;4704;50.470;12.072;2023-02-25T16:10:18;4.93;;;1.92;;